< Typhoon 199121 1991 Season Typhoon 199123 >
Typhoon 199122 (PAT)
General InformationTrack Information on Google MapsDetailed Wind InformationList of All Images || Disaster Info.ResourceGoogle EarthGE AnimationAtom FeedGeoJSON
Detalied Best Track (Time Zone = UTC)
Year Month Day Hour Lat. Long. Pressure (hPa) Wind (kt) Class Image Chart
1991 10 4 06 14.0 164.0 1004 0 2 Image Chart
1991 10 4 12 14.0 162.5 1004 0 2 Image Chart
1991 10 4 18 14.0 161.0 1002 0 2 Image Chart
1991 10 5 00 14.2 159.5 1000 0 2 Image Chart
1991 10 5 06 14.6 158.5 1000 0 2 Image Chart
1991 10 5 12 14.8 157.6 1000 0 2 Image Chart
1991 10 5 18 15.0 156.3 998 35 3 Image Chart
1991 10 6 00 15.3 155.0 994 40 3 Image Chart
1991 10 6 06 15.5 153.8 990 45 3 Image Chart
1991 10 6 12 15.8 153.1 985 50 4 Image Chart
1991 10 6 18 15.9 152.6 980 55 4 Image Chart
1991 10 7 00 16.1 152.0 975 60 4 Image Chart
1991 10 7 06 16.4 151.7 970 65 5 Image Chart
1991 10 7 12 17.0 151.5 965 70 5 Image Chart
1991 10 7 18 17.5 151.3 955 80 5 Image Chart
1991 10 8 00 17.8 151.2 945 85 5 Image Chart
1991 10 8 06 18.2 151.1 940 90 5 Image Chart
1991 10 8 12 19.1 151.2 940 90 5 Image Chart
1991 10 8 18 19.6 150.9 935 90 5 Image Chart
1991 10 9 00 20.2 150.6 925 95 5 Image Chart
1991 10 9 06 20.9 150.2 925 95 5 Image Chart
1991 10 9 12 21.3 149.9 925 95 5 Image Chart
1991 10 9 18 21.8 149.6 930 95 5 Image Chart
1991 10 10 00 22.2 149.6 930 95 5 Image Chart
1991 10 10 06 22.7 149.6 935 90 5 Image Chart
1991 10 10 12 23.4 149.8 940 85 5 Image Chart
1991 10 10 18 24.3 150.1 950 80 5 Image Chart
1991 10 11 00 25.0 150.5 960 75 5 Image Chart
1991 10 11 06 26.3 151.3 960 75 5 Image Chart
1991 10 11 12 27.6 151.3 965 70 5 Image Chart
1991 10 11 18 29.5 151.4 965 70 5 Image Chart
1991 10 12 00 31.6 151.7 965 70 5 Image Chart
1991 10 12 06 33.7 152.0 965 70 5 Image Chart
1991 10 12 12 35.9 152.9 965 70 5 Image Chart
1991 10 12 18 38.4 154.2 970 65 5 Image Chart
1991 10 13 00 40.7 155.3 975 60 4 Image Chart
1991 10 13 06 42.5 157.2 980 60 4 Image Chart
1991 10 13 12 44.0 159.0 986 0 6 Image Chart
1991 10 13 18 46.0 162.0 986 0 6 Image Chart
1991 10 14 00 47.0 164.0 988 0 6 Image Chart
1991 10 14 06 48.0 166.0 988 0 6 Image Chart
Japan Meteorological Agency Best Track Data | Correction Date : 1992-01-04
< Typhoon 199121 1991 Season Typhoon 199123 >

Help